Time;durP1;ratioP1;P1;durP2;ratioP2;P2;SDS_P1;SDS_P2;PMS_P1;PMS_P2;Temp;Humidity;BMP_temperature;BMP_pressure;BME280_temperature;BME280_humidity;BME280_pressure;Samples;Min_cycle;Max_cycle;Signal;HPM_P1;HPM_P2
2021/05/22 00:00:37;;;;;;;6.53;5.57;;;;;20.60;99066.00;;;;2049208;28;20649;-53
2021/05/22 00:01:38;;;;;;;5.27;4.77;;;;;20.60;99067.00;;;;2045683;28;20213;-53
2021/05/22 00:02:39;;;;;;;5.43;4.93;;;;;20.60;99070.00;;;;2046731;28;20217;-53
2021/05/22 00:03:39;;;;;;;7.03;5.90;;;;;20.60;99065.00;;;;2038067;29;20698;-53
2021/05/22 00:04:40;;;;;;;6.73;5.40;;;;;20.60;99070.00;;;;2030201;29;20247;-54
2021/05/22 00:05:40;;;;;;;5.87;4.77;;;;;20.60;99061.00;;;;2038364;29;20285;-54
2021/05/22 00:06:40;;;;;;;5.97;5.10;;;;;20.60;99075.00;;;;2046789;28;20225;-54
2021/05/22 00:07:41;;;;;;;6.50;4.90;;;;;20.60;99072.00;;;;2046867;28;20212;-53
2021/05/22 00:08:41;;;;;;;6.30;5.07;;;;;20.60;99069.00;;;;2042910;29;20217;-54
2021/05/22 00:09:42;;;;;;;6.70;4.67;;;;;20.60;99071.00;;;;2045917;29;20220;-53
2021/05/22 00:10:42;;;;;;;6.10;5.03;;;;;20.60;99066.00;;;;2054441;28;20212;-54
2021/05/22 00:11:43;;;;;;;6.80;4.60;;;;;20.60;99062.00;;;;2054051;28;20295;-53
2021/05/22 00:12:45;;;;;;;5.20;4.70;;;;;20.60;99069.00;;;;2054844;28;20212;-52
2021/05/22 00:13:46;;;;;;;5.90;4.72;;;;;20.60;99070.00;;;;2054502;28;20759;-53
2021/05/22 00:14:46;;;;;;;4.50;3.90;;;;;20.60;99067.00;;;;2054144;28;20220;-54
2021/05/22 00:15:46;;;;;;;5.33;4.73;;;;;20.60;99070.00;;;;2054629;28;20239;-54
2021/05/22 00:16:47;;;;;;;5.83;4.63;;;;;20.60;99063.00;;;;2052904;28;20220;-53
2021/05/22 00:17:47;;;;;;;5.13;4.30;;;;;20.60;99056.00;;;;2047564;28;20221;-53
2021/05/22 00:18:48;;;;;;;5.70;4.53;;;;;20.60;99058.00;;;;2047206;28;20224;-53
2021/05/22 00:19:48;;;;;;;5.20;4.40;;;;;20.60;99063.00;;;;2046627;28;20214;-53
2021/05/22 00:20:48;;;;;;;5.13;4.60;;;;;20.60;99068.00;;;;2046408;28;20920;-53
2021/05/22 00:21:49;;;;;;;5.90;4.43;;;;;20.60;99057.00;;;;2037262;29;20253;-53
2021/05/22 00:22:49;;;;;;;5.37;4.33;;;;;20.60;99049.00;;;;2038144;29;20274;-53
2021/05/22 00:23:49;;;;;;;4.40;4.00;;;;;20.60;99054.00;;;;2045849;28;20232;-53
2021/05/22 00:24:50;;;;;;;4.40;3.80;;;;;20.60;99048.00;;;;2046247;28;20235;-53
2021/05/22 00:25:50;;;;;;;5.40;4.10;;;;;20.60;99049.00;;;;2046470;28;20229;-53
2021/05/22 00:26:50;;;;;;;5.27;4.30;;;;;20.60;99038.00;;;;2046638;28;20218;-52
2021/05/22 00:27:51;;;;;;;4.87;4.17;;;;;20.60;99054.00;;;;2046535;28;20225;-53
2021/05/22 00:28:51;;;;;;;5.40;4.10;;;;;20.60;99044.00;;;;2046614;28;20287;-53
2021/05/22 00:29:51;;;;;;;5.03;3.87;;;;;20.60;99043.00;;;;2046007;28;20221;-53
2021/05/22 00:30:52;;;;;;;4.17;3.70;;;;;20.60;99050.00;;;;2046418;28;20209;-53
2021/05/22 00:31:52;;;;;;;5.67;4.57;;;;;20.60;99051.00;;;;2045756;28;20217;-53
2021/05/22 00:32:52;;;;;;;3.40;3.10;;;;;20.60;99049.00;;;;2046087;28;20284;-54
2021/05/22 00:33:53;;;;;;;5.30;3.97;;;;;20.60;99041.00;;;;2041328;28;20216;-54
2021/05/22 00:34:53;;;;;;;4.50;3.87;;;;;20.60;99042.00;;;;2042911;28;20582;-53
2021/05/22 00:35:54;;;;;;;5.27;4.13;;;;;20.60;99044.00;;;;2046402;28;20702;-52
2021/05/22 00:36:55;;;;;;;4.65;3.80;;;;;20.60;99035.00;;;;2046620;28;20209;-53
2021/05/22 00:37:55;;;;;;;4.53;3.60;;;;;20.60;99024.00;;;;2046518;28;20212;-54
2021/05/22 00:38:55;;;;;;;5.00;3.57;;;;;20.60;99032.00;;;;2046414;28;20232;-53
2021/05/22 00:39:56;;;;;;;4.37;3.47;;;;;20.60;99032.00;;;;2046961;28;20858;-54
2021/05/22 00:40:56;;;;;;;4.07;3.67;;;;;20.60;99036.00;;;;2054377;28;20637;-54
2021/05/22 00:41:58;;;;;;;4.20;3.80;;;;;20.60;99038.00;;;;2053828;28;20219;-54
2021/05/22 00:42:58;;;;;;;3.80;3.25;;;;;20.60;99036.00;;;;2054298;28;20299;-53
2021/05/22 00:43:58;;;;;;;5.93;3.67;;;;;20.60;99033.00;;;;2048581;28;20228;-53
2021/05/22 00:45:12;;;;;;;4.00;3.40;;;;;20.60;99033.00;;;;2046270;28;20231;-53
2021/05/22 00:46:13;;;;;;;3.90;3.20;;;;;20.60;99028.00;;;;2050125;28;20693;-53
2021/05/22 00:47:13;;;;;;;4.33;3.57;;;;;20.60;99025.00;;;;2049727;28;20201;-53
2021/05/22 00:48:14;;;;;;;4.47;3.50;;;;;20.60;99023.00;;;;2050086;28;20291;-53
2021/05/22 00:49:14;;;;;;;3.90;3.13;;;;;20.60;99029.00;;;;2049716;28;20203;-53
2021/05/22 00:50:19;;;;;;;3.87;3.00;;;;;20.60;99027.00;;;;2045857;28;20226;-53
2021/05/22 00:51:19;;;;;;;4.65;3.10;;;;;20.60;99002.00;;;;2045642;28;20213;-52
2021/05/22 00:52:20;;;;;;;4.90;3.40;;;;;20.60;99025.00;;;;2046252;28;20229;-53
2021/05/22 00:53:20;;;;;;;3.63;3.17;;;;;20.60;99024.00;;;;2030124;29;20210;-53
2021/05/22 00:54:20;;;;;;;3.50;3.20;;;;;20.60;99030.00;;;;2030116;29;20210;-54
2021/05/22 00:55:21;;;;;;;4.17;3.33;;;;;20.60;99018.00;;;;2037988;29;20839;-53
2021/05/22 00:56:22;;;;;;;3.70;3.20;;;;;20.60;99009.00;;;;2037632;29;20216;-54
2021/05/22 00:57:22;;;;;;;3.40;2.77;;;;;20.60;99022.00;;;;2029840;29;20198;-53
2021/05/22 00:58:22;;;;;;;4.37;3.30;;;;;20.60;99029.00;;;;2022335;29;20297;-53
2021/05/22 00:59:23;;;;;;;3.77;3.47;;;;;20.60;99015.00;;;;2037898;29;20206;-53
2021/05/22 01:00:46;;;;;;;3.60;2.70;;;;;20.60;99031.00;;;;2046390;28;20217;-53
2021/05/22 01:01:46;;;;;;;4.07;3.20;;;;;20.60;99026.00;;;;2042386;29;20220;-54
2021/05/22 01:02:47;;;;;;;4.13;2.60;;;;;20.60;99025.00;;;;2045851;29;20217;-53
2021/05/22 01:03:53;;;;;;;3.07;2.60;;;;;20.60;99021.00;;;;2054169;28;20281;-53
2021/05/22 01:04:54;;;;;;;3.45;3.00;;;;;20.60;99022.00;;;;2053964;28;20472;-53
2021/05/22 01:06:23;;;;;;;3.75;3.05;;;;;20.60;99020.00;;;;2054273;28;20605;-54
2021/05/22 01:07:24;;;;;;;3.05;2.65;;;;;20.60;99024.00;;;;2051298;28;20212;-53
2021/05/22 01:08:24;;;;;;;4.03;3.00;;;;;20.60;99020.00;;;;2054169;28;20211;-54
2021/05/22 01:09:25;;;;;;;4.90;2.93;;;;;20.60;99024.00;;;;2045682;29;20231;-53
2021/05/22 01:10:25;;;;;;;3.37;2.67;;;;;20.60;99019.00;;;;2045793;28;20220;-53
2021/05/22 01:11:38;;;;;;;4.17;2.63;;;;;20.60;99018.00;;;;2053306;28;20223;-53
2021/05/22 01:12:41;;;;;;;3.63;2.75;;;;;20.60;99023.00;;;;2053991;28;20274;-54
2021/05/22 01:13:42;;;;;;;3.15;2.72;;;;;20.60;99017.00;;;;2054200;28;20624;-54
2021/05/22 01:14:46;;;;;;;3.15;2.83;;;;;20.60;99021.00;;;;2045622;29;20593;-54
2021/05/22 01:15:48;;;;;;;3.30;2.88;;;;;20.60;99021.00;;;;2046158;28;20227;-54
2021/05/22 01:16:51;;;;;;;3.25;2.53;;;;;20.50;99017.00;;;;2042254;29;20224;-54
2021/05/22 01:17:51;;;;;;;2.78;2.33;;;;;20.50;99019.00;;;;2031212;29;20385;-53
2021/05/22 01:18:51;;;;;;;3.17;2.87;;;;;20.60;99020.00;;;;2040246;28;20225;-53
2021/05/22 01:19:54;;;;;;;3.67;2.60;;;;;20.60;99019.00;;;;2033834;29;20580;-53
2021/05/22 01:20:59;;;;;;;3.20;2.55;;;;;20.60;99017.00;;;;2030438;29;20614;-54
2021/05/22 01:22:00;;;;;;;2.78;2.28;;;;;20.50;99013.00;;;;2032629;29;20226;-53
2021/05/22 01:23:22;;;;;;;3.03;2.33;;;;;20.50;99014.00;;;;2029911;29;20941;-54
2021/05/22 01:24:22;;;;;;;3.00;2.42;;;;;20.50;99017.00;;;;2028385;29;20850;-53
2021/05/22 01:25:33;;;;;;;3.70;2.63;;;;;20.50;99007.00;;;;2036867;29;20229;-53
2021/05/22 01:26:33;;;;;;;2.55;2.15;;;;;20.50;99008.00;;;;2046197;28;20232;-53
2021/05/22 01:27:34;;;;;;;2.23;2.00;;;;;20.50;99018.00;;;;2046264;28;20217;-53
2021/05/22 01:28:35;;;;;;;2.85;2.30;;;;;20.50;99008.00;;;;2037810;29;20218;-53
2021/05/22 01:29:36;;;;;;;4.57;2.60;;;;;20.50;99004.00;;;;2037852;29;20705;-54
2021/05/22 01:30:37;;;;;;;3.40;2.40;;;;;20.40;99001.00;;;;2046250;28;21048;-53
2021/05/22 01:31:37;;;;;;;3.00;2.33;;;;;20.50;99008.00;;;;2045164;28;20690;-53
2021/05/22 01:32:37;;;;;;;2.60;2.40;;;;;20.60;99009.00;;;;2046064;28;20712;-53
2021/05/22 01:33:38;;;;;;;3.87;2.50;;;;;20.60;99009.00;;;;2029643;29;20703;-53
2021/05/22 01:34:38;;;;;;;3.10;2.40;;;;;20.50;99002.00;;;;2022005;29;20731;-53
2021/05/22 01:35:40;;;;;;;3.97;2.30;;;;;20.50;99008.00;;;;2038625;29;20292;-53
2021/05/22 01:36:40;;;;;;;2.83;2.00;;;;;20.60;99003.00;;;;2047930;28;20217;-54
2021/05/22 01:37:41;;;;;;;2.80;2.30;;;;;20.50;99007.00;;;;2047392;28;20721;-55
2021/05/22 01:38:41;;;;;;;3.40;2.30;;;;;20.50;98998.00;;;;2047844;28;20686;-54
2021/05/22 01:39:41;;;;;;;3.03;2.20;;;;;20.50;99011.00;;;;2047896;28;20555;-54
2021/05/22 01:40:42;;;;;;;2.60;2.00;;;;;20.50;99005.00;;;;2046995;28;20228;-54
2021/05/22 01:41:42;;;;;;;2.80;1.90;;;;;20.50;99002.00;;;;2046354;28;20205;-54
2021/05/22 01:42:43;;;;;;;3.40;2.30;;;;;20.50;98998.00;;;;2038701;29;20213;-53
2021/05/22 01:43:48;;;;;;;3.50;2.60;;;;;20.50;99002.00;;;;2038763;29;20221;-54
2021/05/22 01:44:50;;;;;;;2.45;2.03;;;;;20.50;99003.00;;;;2039266;29;20449;-53
2021/05/22 01:45:52;;;;;;;2.50;1.90;;;;;20.50;99006.00;;;;2039291;29;20225;-54
2021/05/22 01:46:53;;;;;;;3.05;2.25;;;;;20.50;99011.00;;;;2028929;29;20759;-52
2021/05/22 01:47:53;;;;;;;2.55;2.30;;;;;20.50;99014.00;;;;2037775;29;20205;-54
2021/05/22 01:48:53;;;;;;;2.47;2.10;;;;;20.50;99009.00;;;;2032278;29;20293;-53
2021/05/22 01:49:54;;;;;;;2.30;1.80;;;;;20.50;99009.00;;;;2023564;29;20207;-54
2021/05/22 01:51:08;;;;;;;6.13;2.27;;;;;20.50;99010.00;;;;2038868;29;20598;-53
2021/05/22 01:52:09;;;;;;;2.58;1.92;;;;;20.50;99013.00;;;;2040746;29;20272;-53
2021/05/22 01:53:10;;;;;;;2.10;1.90;;;;;20.50;99013.00;;;;2031710;29;20225;-53
2021/05/22 01:54:11;;;;;;;2.53;1.73;;;;;20.50;99010.00;;;;2031574;29;20308;-53
2021/05/22 01:55:11;;;;;;;2.33;1.90;;;;;20.50;99006.00;;;;2031560;29;20218;-54
2021/05/22 01:56:12;;;;;;;2.43;2.00;;;;;20.50;99003.00;;;;2021500;29;20712;-54
2021/05/22 01:57:12;;;;;;;2.20;1.70;;;;;20.50;99009.00;;;;2029612;29;20214;-54
2021/05/22 01:58:12;;;;;;;2.67;2.07;;;;;20.50;98993.00;;;;2037570;29;20217;-53
2021/05/22 01:59:13;;;;;;;2.17;1.83;;;;;20.50;99008.00;;;;2037780;29;20220;-53
2021/05/22 02:00:14;;;;;;;2.47;1.70;;;;;20.50;99003.00;;;;2046990;28;20307;-53
2021/05/22 02:01:14;;;;;;;2.00;1.80;;;;;20.50;98998.00;;;;2046566;28;20224;-55
2021/05/22 02:02:14;;;;;;;2.80;1.83;;;;;20.50;98998.00;;;;2031153;29;20501;-54
2021/05/22 02:03:24;;;;;;;2.63;1.63;;;;;20.50;99001.00;;;;2023575;29;20306;-54
2021/05/22 02:04:25;;;;;;;2.95;2.00;;;;;20.50;99003.00;;;;2039277;29;20213;-54
2021/05/22 02:05:26;;;;;;;1.80;1.57;;;;;20.50;99003.00;;;;2031238;29;20230;-54
2021/05/22 02:06:28;;;;;;;1.77;1.37;;;;;20.50;98998.00;;;;2031401;29;20469;-54
2021/05/22 02:07:28;;;;;;;2.95;2.22;;;;;20.50;98999.00;;;;2046083;29;20217;-54
2021/05/22 02:08:28;;;;;;;3.10;1.90;;;;;20.50;99004.00;;;;2047230;28;20223;-53
2021/05/22 02:09:30;;;;;;;2.00;1.57;;;;;20.50;99008.00;;;;2046787;29;20217;-53
2021/05/22 02:10:30;;;;;;;2.17;1.60;;;;;20.50;99000.00;;;;2039320;29;20663;-54
2021/05/22 02:11:35;;;;;;;1.87;1.67;;;;;20.50;99005.00;;;;2038249;29;20233;-53
2021/05/22 02:12:35;;;;;;;2.45;1.98;;;;;20.50;99006.00;;;;2039415;29;20218;-53
2021/05/22 02:13:35;;;;;;;1.57;1.30;;;;;20.50;99003.00;;;;2039187;29;20749;-54
2021/05/22 02:14:36;;;;;;;1.77;1.50;;;;;20.50;99000.00;;;;2036688;29;20938;-53
2021/05/22 02:15:37;;;;;;;1.63;1.50;;;;;20.50;98997.00;;;;2039176;29;20224;-54
2021/05/22 02:16:44;;;;;;;2.40;1.57;;;;;20.50;99001.00;;;;2033260;29;20765;-53
2021/05/22 02:17:45;;;;;;;2.78;1.73;;;;;20.50;98993.00;;;;2029559;29;20222;-54
2021/05/22 02:18:45;;;;;;;2.17;1.48;;;;;20.50;98990.00;;;;2038950;29;20217;-53
2021/05/22 02:19:46;;;;;;;2.07;1.70;;;;;20.50;98993.00;;;;2025863;29;20223;-54
2021/05/22 02:20:47;;;;;;;2.20;1.63;;;;;20.50;99003.00;;;;2023110;29;20355;-53
2021/05/22 02:21:47;;;;;;;1.80;1.33;;;;;20.50;98991.00;;;;2030021;29;20222;-54
2021/05/22 02:22:47;;;;;;;2.10;1.67;;;;;20.50;98990.00;;;;2047518;28;20464;-55
2021/05/22 02:23:48;;;;;;;2.67;1.90;;;;;20.50;99000.00;;;;2047485;28;20209;-53
2021/05/22 02:24:51;;;;;;;2.00;1.57;;;;;20.50;99005.00;;;;2038681;29;20221;-54
2021/05/22 02:25:56;;;;;;;2.75;1.80;;;;;20.50;98995.00;;;;2043663;28;20613;-53
2021/05/22 02:26:57;;;;;;;2.17;1.80;;;;;20.50;98990.00;;;;2055603;28;20242;-53
2021/05/22 02:28:00;;;;;;;2.15;1.75;;;;;20.50;98998.00;;;;2046552;28;20235;-52
2021/05/22 02:29:00;;;;;;;3.35;1.77;;;;;20.50;98991.00;;;;2046790;29;20620;-53
2021/05/22 02:30:01;;;;;;;2.27;1.53;;;;;20.50;98989.00;;;;2047133;28;20216;-53
2021/05/22 02:31:01;;;;;;;1.87;1.40;;;;;20.50;98991.00;;;;2039670;29;20560;-53
2021/05/22 02:32:02;;;;;;;2.07;1.53;;;;;20.50;98990.00;;;;2031258;29;20218;-53
2021/05/22 02:33:03;;;;;;;1.90;1.50;;;;;20.50;98989.00;;;;2031524;29;20579;-52
2021/05/22 02:34:03;;;;;;;1.87;1.40;;;;;20.50;98986.00;;;;2051290;28;20244;-53
2021/05/22 02:35:04;;;;;;;2.87;1.50;;;;;20.50;98981.00;;;;2046866;29;20475;-53
2021/05/22 02:36:05;;;;;;;3.00;1.30;;;;;20.50;98983.00;;;;2030313;29;20338;-53
2021/05/22 02:37:05;;;;;;;2.37;1.30;;;;;20.50;98982.00;;;;2023525;29;20278;-53
2021/05/22 02:38:07;;;;;;;2.00;1.10;;;;;20.50;98986.00;;;;2029144;29;20218;-53
2021/05/22 02:39:07;;;;;;;4.03;1.50;;;;;20.50;98982.00;;;;2038944;29;20217;-53
2021/05/22 02:40:14;;;;;;;3.17;1.20;;;;;20.50;98982.00;;;;2045431;29;20220;-54
2021/05/22 02:41:14;;;;;;;2.47;1.55;;;;;20.50;98980.00;;;;2046533;28;20249;-54
2021/05/22 02:42:15;;;;;;;3.20;1.80;;;;;20.40;98980.00;;;;2047518;28;20626;-53
2021/05/22 02:43:15;;;;;;;2.60;1.50;;;;;20.40;98980.00;;;;2038615;29;20245;-54
2021/05/22 02:44:16;;;;;;;1.70;1.40;;;;;20.50;98981.00;;;;2022420;29;20215;-54
2021/05/22 02:45:16;;;;;;;2.03;1.60;;;;;20.50;98985.00;;;;2030829;29;20227;-53
2021/05/22 02:46:19;;;;;;;2.37;1.23;;;;;20.50;98978.00;;;;2038912;29;20990;-53
2021/05/22 02:47:20;;;;;;;2.15;1.45;;;;;20.50;98975.00;;;;2050651;28;20220;-53
2021/05/22 02:48:20;;;;;;;2.95;1.30;;;;;20.50;98978.00;;;;2041490;29;20222;-54
2021/05/22 02:49:26;;;;;;;1.60;1.33;;;;;20.50;98983.00;;;;2025487;29;20226;-53
2021/05/22 02:50:26;;;;;;;1.48;1.23;;;;;20.50;98979.00;;;;2036297;28;20332;-54
2021/05/22 02:51:27;;;;;;;2.90;1.70;;;;;20.50;98969.00;;;;2046028;29;20733;-53
2021/05/22 02:52:27;;;;;;;2.50;1.50;;;;;20.50;98980.00;;;;2023198;29;20590;-53
2021/05/22 02:53:27;;;;;;;2.43;1.40;;;;;20.40;98981.00;;;;2023219;29;20215;-53
2021/05/22 02:54:28;;;;;;;1.90;1.20;;;;;20.40;98968.00;;;;2038842;29;20233;-53
2021/05/22 02:55:28;;;;;;;1.30;1.00;;;;;20.50;98968.00;;;;2023131;29;20279;-54
2021/05/22 02:56:29;;;;;;;1.60;1.40;;;;;20.50;98980.00;;;;2021574;29;20219;-54
2021/05/22 02:57:29;;;;;;;2.20;1.10;;;;;20.50;98972.00;;;;2038889;29;20261;-54
2021/05/22 02:58:29;;;;;;;1.77;1.13;;;;;20.50;98974.00;;;;2038850;29;21120;-55
2021/05/22 02:59:30;;;;;;;1.97;1.23;;;;;20.40;98969.00;;;;2023171;29;20242;-53
2021/05/22 03:00:30;;;;;;;2.40;1.30;;;;;20.40;98978.00;;;;2030602;29;20663;-54
2021/05/22 03:01:31;;;;;;;2.30;1.30;;;;;20.40;98973.00;;;;2041931;29;20255;-53
2021/05/22 03:02:32;;;;;;;1.70;1.40;;;;;20.40;98973.00;;;;2046733;29;20223;-53
2021/05/22 03:03:33;;;;;;;2.25;1.20;;;;;20.40;98970.00;;;;2030893;29;20218;-54
2021/05/22 03:04:34;;;;;;;1.77;1.20;;;;;20.40;98978.00;;;;2030975;29;20214;-53
2021/05/22 03:05:34;;;;;;;1.77;1.00;;;;;20.40;98974.00;;;;2038363;29;20738;-53
2021/05/22 03:06:35;;;;;;;2.07;1.20;;;;;20.40;98968.00;;;;2039965;29;20309;-53
2021/05/22 03:07:35;;;;;;;1.60;1.00;;;;;20.50;98984.00;;;;2030999;29;20234;-53
2021/05/22 03:08:43;;;;;;;3.10;1.83;;;;;20.50;98972.00;;;;2038560;29;20226;-53
2021/05/22 03:09:44;;;;;;;1.40;1.15;;;;;20.40;98970.00;;;;2051652;28;20222;-53
2021/05/22 03:10:45;;;;;;;2.03;1.50;;;;;20.40;98964.00;;;;2030479;29;20252;-54
2021/05/22 03:11:46;;;;;;;1.43;1.03;;;;;20.40;98968.00;;;;2022377;29;20225;-53
2021/05/22 03:12:46;;;;;;;1.87;1.10;;;;;20.40;98960.00;;;;2038457;29;20296;-54
2021/05/22 03:13:46;;;;;;;1.60;1.10;;;;;20.40;98974.00;;;;2046326;29;20221;-54
2021/05/22 03:14:47;;;;;;;2.13;1.30;;;;;20.40;98968.00;;;;2054251;28;20216;-52
2021/05/22 03:15:47;;;;;;;1.27;1.00;;;;;20.30;98962.00;;;;2054018;28;20224;-53
2021/05/22 03:16:48;;;;;;;1.60;1.00;;;;;20.40;98968.00;;;;2052008;28;20238;-54
2021/05/22 03:17:48;;;;;;;1.37;0.80;;;;;20.40;98962.00;;;;2047616;28;20222;-54
2021/05/22 03:18:48;;;;;;;1.80;1.30;;;;;20.40;98974.00;;;;2047915;28;20593;-54
2021/05/22 03:19:49;;;;;;;2.80;1.30;;;;;20.40;98967.00;;;;2046752;28;20320;-54
2021/05/22 03:20:49;;;;;;;1.27;0.80;;;;;20.40;98974.00;;;;2046254;28;20216;-53
2021/05/22 03:21:49;;;;;;;2.27;1.20;;;;;20.40;98968.00;;;;2050276;28;20745;-53
2021/05/22 03:22:50;;;;;;;2.17;1.20;;;;;20.40;98973.00;;;;2047191;28;20590;-53
2021/05/22 03:23:50;;;;;;;1.60;1.07;;;;;20.40;98972.00;;;;2047143;28;20604;-54
2021/05/22 03:24:51;;;;;;;2.07;1.27;;;;;20.40;98966.00;;;;2052932;28;20296;-53
2021/05/22 03:25:51;;;;;;;1.83;1.10;;;;;20.40;98971.00;;;;2055014;28;20216;-53
2021/05/22 03:26:53;;;;;;;2.97;1.40;;;;;20.40;98969.00;;;;2055181;28;20204;-53
2021/05/22 03:27:53;;;;;;;1.80;0.93;;;;;20.40;98969.00;;;;2054908;28;20215;-53
2021/05/22 03:28:54;;;;;;;1.63;0.93;;;;;20.40;98968.00;;;;2054925;28;20640;-53
2021/05/22 03:29:54;;;;;;;1.73;0.93;;;;;20.40;98971.00;;;;2055063;28;20220;-53
2021/05/22 03:30:54;;;;;;;1.20;0.60;;;;;20.40;98964.00;;;;2054819;28;20290;-53
2021/05/22 03:31:55;;;;;;;1.50;1.00;;;;;20.40;98967.00;;;;2054336;28;20223;-54
2021/05/22 03:32:55;;;;;;;2.33;1.60;;;;;20.40;98956.00;;;;2044500;29;20209;-54
2021/05/22 03:33:56;;;;;;;1.63;1.13;;;;;20.40;98960.00;;;;2045933;29;20232;-53
2021/05/22 03:34:56;;;;;;;1.53;0.93;;;;;20.40;98965.00;;;;2055119;28;20274;-53
2021/05/22 03:35:56;;;;;;;2.80;1.20;;;;;20.40;98983.00;;;;2054780;28;20226;-53
2021/05/22 03:36:57;;;;;;;1.37;0.80;;;;;20.40;98966.00;;;;2054937;28;20212;-54
2021/05/22 03:37:57;;;;;;;1.20;0.80;;;;;20.40;98965.00;;;;2054996;28;20665;-54
2021/05/22 03:38:57;;;;;;;1.77;1.17;;;;;20.40;98965.00;;;;2054889;28;20224;-53
2021/05/22 03:39:58;;;;;;;1.97;1.30;;;;;20.40;98964.00;;;;2054949;28;20890;-54
2021/05/22 03:40:58;;;;;;;3.10;1.23;;;;;20.40;98964.00;;;;2054206;28;20600;-54
2021/05/22 03:41:59;;;;;;;2.50;0.83;;;;;20.40;98966.00;;;;2054781;28;20588;-53
2021/05/22 03:42:59;;;;;;;1.93;0.90;;;;;20.40;98959.00;;;;2054243;28;20220;-57
2021/05/22 03:43:59;;;;;;;1.60;1.17;;;;;20.40;98968.00;;;;2054616;28;20215;-55
2021/05/22 03:45:00;;;;;;;1.93;0.90;;;;;20.40;98964.00;;;;2054716;28;20222;-54
2021/05/22 03:46:00;;;;;;;2.10;1.17;;;;;20.40;98962.00;;;;2054884;28;20220;-53
2021/05/22 03:47:00;;;;;;;1.63;0.83;;;;;20.40;98958.00;;;;2049186;28;20211;-53
2021/05/22 03:48:01;;;;;;;1.70;0.90;;;;;20.40;98961.00;;;;2046933;28;20212;-53
2021/05/22 03:49:01;;;;;;;2.30;0.87;;;;;20.40;98957.00;;;;2046366;28;20216;-54
2021/05/22 03:50:03;;;;;;;1.80;1.17;;;;;20.40;98964.00;;;;2046778;28;20315;-53
2021/05/22 03:51:03;;;;;;;2.47;1.08;;;;;20.40;98965.00;;;;2037538;29;20228;-54
2021/05/22 03:52:04;;;;;;;1.30;0.70;;;;;20.40;98971.00;;;;2042560;28;20240;-53
2021/05/22 03:53:05;;;;;;;1.83;0.97;;;;;20.40;98976.00;;;;2053900;28;20216;-53
2021/05/22 03:54:05;;;;;;;1.60;0.90;;;;;20.40;98971.00;;;;2046234;29;20464;-54
2021/05/22 03:55:07;;;;;;;0.90;0.70;;;;;20.40;98971.00;;;;2046050;29;20228;-53
2021/05/22 03:56:07;;;;;;;1.38;1.05;;;;;20.40;98967.00;;;;2038388;29;20218;-53
2021/05/22 03:57:07;;;;;;;2.50;1.00;;;;;20.40;98969.00;;;;2038315;29;20209;-53
2021/05/22 03:58:08;;;;;;;2.20;0.90;;;;;20.40;98971.00;;;;2046945;28;20212;-53
2021/05/22 03:59:08;;;;;;;2.37;1.00;;;;;20.40;98968.00;;;;2045760;28;20693;-53
2021/05/22 04:00:09;;;;;;;1.37;0.93;;;;;20.40;98970.00;;;;2046697;28;20213;-53
2021/05/22 04:01:09;;;;;;;1.23;0.90;;;;;20.40;98970.00;;;;2049555;28;20693;-53
2021/05/22 04:02:10;;;;;;;1.30;0.80;;;;;20.40;98971.00;;;;2054845;28;20220;-53
2021/05/22 04:03:10;;;;;;;1.33;1.03;;;;;20.40;98973.00;;;;2054567;28;20220;-54
2021/05/22 04:04:11;;;;;;;1.73;0.83;;;;;20.40;98971.00;;;;2054848;28;20268;-53
2021/05/22 04:05:11;;;;;;;1.37;0.83;;;;;20.40;98971.00;;;;2054440;28;20220;-54
2021/05/22 04:06:12;;;;;;;1.63;0.90;;;;;20.40;98966.00;;;;2054709;28;20216;-54
2021/05/22 04:07:12;;;;;;;1.97;0.93;;;;;20.40;98965.00;;;;2054870;28;20220;-53
2021/05/22 04:08:13;;;;;;;1.97;0.77;;;;;20.40;98973.00;;;;2054767;28;20745;-53
2021/05/22 04:09:13;;;;;;;2.80;1.20;;;;;20.40;98968.00;;;;2054741;28;20629;-52
2021/05/22 04:10:13;;;;;;;3.03;1.00;;;;;20.40;98957.00;;;;2054896;28;20344;-53
2021/05/22 04:11:14;;;;;;;1.87;1.10;;;;;20.40;98975.00;;;;2054058;28;20223;-53
2021/05/22 04:12:14;;;;;;;1.77;1.00;;;;;20.40;98972.00;;;;2046280;28;20215;-53
2021/05/22 04:13:15;;;;;;;1.40;0.80;;;;;20.40;98968.00;;;;2046163;29;20283;-53
2021/05/22 04:14:15;;;;;;;1.23;0.93;;;;;20.40;98972.00;;;;2054848;28;20208;-53
2021/05/22 04:15:15;;;;;;;1.60;0.90;;;;;20.40;98976.00;;;;2054467;28;20255;-54
2021/05/22 04:16:16;;;;;;;1.63;0.80;;;;;20.40;98968.00;;;;2053296;28;20726;-53
2021/05/22 04:17:16;;;;;;;1.40;1.07;;;;;20.40;98969.00;;;;2051808;28;20300;-53
2021/05/22 04:18:17;;;;;;;3.27;1.10;;;;;20.40;98978.00;;;;2051795;28;20302;-53
2021/05/22 04:19:17;;;;;;;2.00;0.80;;;;;20.40;98975.00;;;;2049515;28;20208;-54
2021/05/22 04:20:17;;;;;;;1.77;0.90;;;;;20.40;98970.00;;;;2046583;28;20235;-53
2021/05/22 04:21:18;;;;;;;2.50;1.10;;;;;20.40;98976.00;;;;2045867;28;20239;-54
2021/05/22 04:22:18;;;;;;;1.50;0.90;;;;;20.40;98975.00;;;;2038186;29;20205;-53
2021/05/22 04:23:18;;;;;;;1.40;0.90;;;;;20.40;98976.00;;;;2038219;29;20213;-54
2021/05/22 04:24:19;;;;;;;2.00;1.10;;;;;20.40;98975.00;;;;2046587;28;20209;-52
2021/05/22 04:25:19;;;;;;;3.53;0.70;;;;;20.40;98973.00;;;;2046740;28;20253;-53
2021/05/22 04:26:20;;;;;;;1.20;0.77;;;;;20.40;98982.00;;;;2046672;28;20219;-53
2021/05/22 04:27:20;;;;;;;1.97;0.90;;;;;20.30;98982.00;;;;2046591;28;20272;-54
2021/05/22 04:28:20;;;;;;;2.13;0.90;;;;;20.40;98968.00;;;;2046691;28;20709;-53
2021/05/22 04:29:21;;;;;;;2.43;0.93;;;;;20.40;98975.00;;;;2046675;28;20235;-53
2021/05/22 04:30:21;;;;;;;2.00;1.10;;;;;20.40;98974.00;;;;2046489;28;20243;-53
2021/05/22 04:31:22;;;;;;;2.13;1.03;;;;;20.40;98969.00;;;;2045986;28;20300;-52
2021/05/22 04:32:22;;;;;;;1.60;0.77;;;;;20.40;98975.00;;;;2046662;28;20208;-53
2021/05/22 04:33:23;;;;;;;1.73;0.83;;;;;20.40;98977.00;;;;2046453;28;20217;-54
2021/05/22 04:34:23;;;;;;;1.93;1.03;;;;;20.40;98970.00;;;;2046535;28;20249;-54
2021/05/22 04:35:24;;;;;;;1.83;0.90;;;;;20.40;98974.00;;;;2046286;28;20275;-54
2021/05/22 04:36:24;;;;;;;2.27;1.00;;;;;20.40;98974.00;;;;2046507;28;21230;-53
2021/05/22 04:37:25;;;;;;;1.43;0.80;;;;;20.40;98974.00;;;;2046482;28;20216;-54
2021/05/22 04:38:25;;;;;;;2.63;0.80;;;;;20.40;98977.00;;;;2046553;28;20308;-54
2021/05/22 04:39:25;;;;;;;4.80;0.93;;;;;20.40;98980.00;;;;2046593;28;20212;-53
2021/05/22 04:40:26;;;;;;;1.57;0.80;;;;;20.40;98973.00;;;;2048598;28;20605;-53
2021/05/22 04:41:26;;;;;;;1.00;0.83;;;;;20.40;98971.00;;;;2053708;28;20218;-52
2021/05/22 04:42:27;;;;;;;1.53;0.80;;;;;20.30;98919.00;;;;2054507;28;20235;-53
2021/05/22 04:43:27;;;;;;;2.00;0.90;;;;;20.30;98980.00;;;;2054145;28;20231;-54
2021/05/22 04:44:28;;;;;;;1.47;0.60;;;;;20.30;98974.00;;;;2053455;28;20239;-53
2021/05/22 04:45:28;;;;;;;1.50;0.80;;;;;20.40;98971.00;;;;2045885;28;20280;-53
2021/05/22 04:46:29;;;;;;;1.60;1.00;;;;;20.30;98968.00;;;;2045880;29;20229;-53
2021/05/22 04:47:29;;;;;;;1.47;0.80;;;;;20.30;98968.00;;;;2048933;28;20235;-53
2021/05/22 04:48:30;;;;;;;1.77;0.90;;;;;20.40;98979.00;;;;2048468;28;20225;-54
2021/05/22 04:49:30;;;;;;;1.20;0.77;;;;;20.40;98978.00;;;;2048061;28;20896;-53
2021/05/22 04:50:32;;;;;;;1.60;0.77;;;;;20.30;98977.00;;;;2046401;28;20305;-53
2021/05/22 04:51:33;;;;;;;1.38;0.80;;;;;20.30;98986.00;;;;2045341;28;20212;-53
2021/05/22 04:52:33;;;;;;;1.87;1.13;;;;;20.30;98977.00;;;;2046512;28;20217;-54
2021/05/22 04:53:34;;;;;;;1.70;0.80;;;;;20.30;98975.00;;;;2053020;28;20224;-53
2021/05/22 04:54:35;;;;;;;1.45;0.80;;;;;20.30;98969.00;;;;2054077;28;20244;-53
2021/05/22 04:55:35;;;;;;;1.77;0.80;;;;;20.40;98973.00;;;;2054013;28;20216;-54
2021/05/22 04:56:35;;;;;;;1.40;0.83;;;;;20.30;98985.00;;;;2054335;28;20224;-54
2021/05/22 04:57:36;;;;;;;2.00;1.00;;;;;20.40;98982.00;;;;2054275;28;20311;-53
2021/05/22 04:58:36;;;;;;;1.60;0.90;;;;;20.30;98986.00;;;;2054267;28;20216;-53
2021/05/22 04:59:37;;;;;;;1.90;0.80;;;;;20.30;98981.00;;;;2053311;28;20228;-53
2021/05/22 05:00:37;;;;;;;1.87;0.87;;;;;20.40;98985.00;;;;2044606;28;20220;-53
2021/05/22 05:01:40;;;;;;;2.47;0.70;;;;;20.30;98981.00;;;;2052639;28;20216;-53
2021/05/22 05:02:40;;;;;;;1.33;0.80;;;;;20.40;98979.00;;;;2053935;28;20208;-53
2021/05/22 05:03:40;;;;;;;1.50;0.80;;;;;20.40;98984.00;;;;2053562;28;20691;-56
2021/05/22 05:04:41;;;;;;;1.83;0.90;;;;;20.40;98978.00;;;;2054060;28;20220;-56
2021/05/22 05:05:41;;;;;;;1.57;0.73;;;;;20.30;98981.00;;;;2054049;28;20223;-54
2021/05/22 05:06:42;;;;;;;1.97;0.70;;;;;20.30;98968.00;;;;2049781;28;20256;-54